sensor_id;sensor_type;location;lat;lon;timestamp;temperature;humidity
49793;DHT22;35690;37.536;-122.304;2022-07-23T00:00:16;33.30;34.10
49793;DHT22;35690;37.536;-122.304;2022-07-23T00:02:43;33.30;34.30
49793;DHT22;35690;37.536;-122.304;2022-07-23T00:05:09;33.30;34.70
49793;DHT22;35690;37.536;-122.304;2022-07-23T00:07:36;33.20;34.10
49793;DHT22;35690;37.536;-122.304;2022-07-23T00:10:03;33.10;34.20
49793;DHT22;35690;37.536;-122.304;2022-07-23T00:12:30;33.10;34.30
49793;DHT22;35690;37.536;-122.304;2022-07-23T00:14:56;33.10;34.20
49793;DHT22;35690;37.536;-122.304;2022-07-23T00:17:22;33.10;34.40
49793;DHT22;35690;37.536;-122.304;2022-07-23T00:19:49;33.10;34.40
49793;DHT22;35690;37.536;-122.304;2022-07-23T00:22:15;33.00;34.30
49793;DHT22;35690;37.536;-122.304;2022-07-23T00:24:42;32.90;34.20
49793;DHT22;35690;37.536;-122.304;2022-07-23T00:27:08;32.80;34.30
49793;DHT22;35690;37.536;-122.304;2022-07-23T00:29:34;32.80;34.20
49793;DHT22;35690;37.536;-122.304;2022-07-23T00:32:01;32.70;34.30
49793;DHT22;35690;37.536;-122.304;2022-07-23T00:34:28;32.60;34.40
49793;DHT22;35690;37.536;-122.304;2022-07-23T00:36:54;32.60;34.30
49793;DHT22;35690;37.536;-122.304;2022-07-23T00:39:21;32.60;34.50
49793;DHT22;35690;37.536;-122.304;2022-07-23T00:41:49;32.60;34.70
49793;DHT22;35690;37.536;-122.304;2022-07-23T00:44:23;32.50;34.70
49793;DHT22;35690;37.536;-122.304;2022-07-23T00:46:53;32.40;34.60
49793;DHT22;35690;37.536;-122.304;2022-07-23T00:49:21;32.30;34.60
49793;DHT22;35690;37.536;-122.304;2022-07-23T00:51:48;32.30;34.60
49793;DHT22;35690;37.536;-122.304;2022-07-23T00:54:16;32.20;34.90
49793;DHT22;35690;37.536;-122.304;2022-07-23T00:56:47;32.10;34.80
49793;DHT22;35690;37.536;-122.304;2022-07-23T00:59:14;32.00;34.90
49793;DHT22;35690;37.536;-122.304;2022-07-23T01:01:41;32.00;35.00
49793;DHT22;35690;37.536;-122.304;2022-07-23T01:04:07;31.90;35.00
49793;DHT22;35690;37.536;-122.304;2022-07-23T01:06:36;31.90;35.00
49793;DHT22;35690;37.536;-122.304;2022-07-23T01:09:05;31.90;35.10
49793;DHT22;35690;37.536;-122.304;2022-07-23T01:11:35;31.80;35.10
49793;DHT22;35690;37.536;-122.304;2022-07-23T01:14:15;31.70;35.10
49793;DHT22;35690;37.536;-122.304;2022-07-23T01:16:43;31.70;35.30
49793;DHT22;35690;37.536;-122.304;2022-07-23T01:19:11;31.70;35.30
49793;DHT22;35690;37.536;-122.304;2022-07-23T01:21:44;31.70;35.40
49793;DHT22;35690;37.536;-122.304;2022-07-23T01:24:12;31.50;35.30
49793;DHT22;35690;37.536;-122.304;2022-07-23T01:26:40;31.50;35.40
49793;DHT22;35690;37.536;-122.304;2022-07-23T01:29:07;31.40;35.40
49793;DHT22;35690;37.536;-122.304;2022-07-23T01:31:34;31.30;35.50
49793;DHT22;35690;37.536;-122.304;2022-07-23T01:34:00;31.30;35.50
49793;DHT22;35690;37.536;-122.304;2022-07-23T01:36:26;31.20;35.60
49793;DHT22;35690;37.536;-122.304;2022-07-23T01:38:53;31.10;35.50
49793;DHT22;35690;37.536;-122.304;2022-07-23T01:41:20;31.10;35.60
49793;DHT22;35690;37.536;-122.304;2022-07-23T01:43:46;31.00;35.60
49793;DHT22;35690;37.536;-122.304;2022-07-23T01:46:13;30.90;35.80
49793;DHT22;35690;37.536;-122.304;2022-07-23T01:48:40;30.80;35.60
49793;DHT22;35690;37.536;-122.304;2022-07-23T01:51:07;30.70;35.70
49793;DHT22;35690;37.536;-122.304;2022-07-23T01:53:34;30.70;35.80
49793;DHT22;35690;37.536;-122.304;2022-07-23T01:56:00;30.60;35.80
49793;DHT22;35690;37.536;-122.304;2022-07-23T01:58:27;30.60;35.90
49793;DHT22;35690;37.536;-122.304;2022-07-23T02:00:54;30.50;36.20
49793;DHT22;35690;37.536;-122.304;2022-07-23T02:03:21;30.30;35.90
49793;DHT22;35690;37.536;-122.304;2022-07-23T02:05:48;30.30;36.10
49793;DHT22;35690;37.536;-122.304;2022-07-23T02:08:14;30.30;36.30
49793;DHT22;35690;37.536;-122.304;2022-07-23T02:10:41;30.10;36.20
49793;DHT22;35690;37.536;-122.304;2022-07-23T02:13:08;30.10;36.20
49793;DHT22;35690;37.536;-122.304;2022-07-23T02:15:35;30.10;36.40
49793;DHT22;35690;37.536;-122.304;2022-07-23T02:18:01;30.00;36.50
49793;DHT22;35690;37.536;-122.304;2022-07-23T02:20:27;29.90;36.30
49793;DHT22;35690;37.536;-122.304;2022-07-23T02:22:54;29.80;36.30
49793;DHT22;35690;37.536;-122.304;2022-07-23T02:25:20;29.80;36.50
49793;DHT22;35690;37.536;-122.304;2022-07-23T02:27:47;29.70;36.50
49793;DHT22;35690;37.536;-122.304;2022-07-23T02:30:13;29.70;36.40
49793;DHT22;35690;37.536;-122.304;2022-07-23T02:32:40;29.60;36.40
49793;DHT22;35690;37.536;-122.304;2022-07-23T02:35:07;29.60;36.70
49793;DHT22;35690;37.536;-122.304;2022-07-23T02:37:33;29.50;36.60
49793;DHT22;35690;37.536;-122.304;2022-07-23T02:40:00;29.40;36.80
49793;DHT22;35690;37.536;-122.304;2022-07-23T02:42:26;29.30;36.70
49793;DHT22;35690;37.536;-122.304;2022-07-23T02:44:54;29.30;36.70
49793;DHT22;35690;37.536;-122.304;2022-07-23T02:47:20;29.30;36.70
49793;DHT22;35690;37.536;-122.304;2022-07-23T02:49:47;29.00;36.60
49793;DHT22;35690;37.536;-122.304;2022-07-23T02:52:15;28.90;36.70
49793;DHT22;35690;37.536;-122.304;2022-07-23T02:54:41;28.90;36.70
49793;DHT22;35690;37.536;-122.304;2022-07-23T02:57:08;28.80;36.60
49793;DHT22;35690;37.536;-122.304;2022-07-23T02:59:34;28.70;36.60
49793;DHT22;35690;37.536;-122.304;2022-07-23T03:02:01;28.70;37.10
49793;DHT22;35690;37.536;-122.304;2022-07-23T03:04:27;28.60;36.40
49793;DHT22;35690;37.536;-122.304;2022-07-23T03:06:54;28.60;36.70
49793;DHT22;35690;37.536;-122.304;2022-07-23T03:09:20;28.40;36.70
49793;DHT22;35690;37.536;-122.304;2022-07-23T03:11:47;28.30;36.80
49793;DHT22;35690;37.536;-122.304;2022-07-23T03:14:13;28.20;36.90
49793;DHT22;35690;37.536;-122.304;2022-07-23T03:16:42;28.10;37.10
49793;DHT22;35690;37.536;-122.304;2022-07-23T03:19:08;28.10;36.90
49793;DHT22;35690;37.536;-122.304;2022-07-23T03:21:35;28.00;37.10
49793;DHT22;35690;37.536;-122.304;2022-07-23T03:24:08;27.90;36.90
49793;DHT22;35690;37.536;-122.304;2022-07-23T03:26:35;27.90;36.70
49793;DHT22;35690;37.536;-122.304;2022-07-23T03:29:02;27.80;36.80
49793;DHT22;35690;37.536;-122.304;2022-07-23T03:31:30;27.70;36.70
49793;DHT22;35690;37.536;-122.304;2022-07-23T03:33:58;27.60;36.90
49793;DHT22;35690;37.536;-122.304;2022-07-23T03:36:25;27.60;37.20
49793;DHT22;35690;37.536;-122.304;2022-07-23T03:38:51;27.50;37.30
49793;DHT22;35690;37.536;-122.304;2022-07-23T03:41:19;27.40;37.30
49793;DHT22;35690;37.536;-122.304;2022-07-23T03:43:46;27.40;37.30
49793;DHT22;35690;37.536;-122.304;2022-07-23T03:46:12;27.20;37.40
49793;DHT22;35690;37.536;-122.304;2022-07-23T03:48:39;27.20;37.60
49793;DHT22;35690;37.536;-122.304;2022-07-23T03:51:05;27.00;37.70
49793;DHT22;35690;37.536;-122.304;2022-07-23T03:53:32;27.00;37.80
49793;DHT22;35690;37.536;-122.304;2022-07-23T03:55:59;26.90;37.80
49793;DHT22;35690;37.536;-122.304;2022-07-23T03:58:26;26.90;37.80
49793;DHT22;35690;37.536;-122.304;2022-07-23T04:00:52;26.80;37.90
49793;DHT22;35690;37.536;-122.304;2022-07-23T04:03:19;26.70;38.00
49793;DHT22;35690;37.536;-122.304;2022-07-23T04:05:45;26.60;38.10
49793;DHT22;35690;37.536;-122.304;2022-07-23T04:08:12;26.50;38.30
49793;DHT22;35690;37.536;-122.304;2022-07-23T04:10:38;26.50;38.40
49793;DHT22;35690;37.536;-122.304;2022-07-23T04:13:06;26.40;38.60
49793;DHT22;35690;37.536;-122.304;2022-07-23T04:15:32;26.30;38.50
49793;DHT22;35690;37.536;-122.304;2022-07-23T04:17:59;26.20;38.60
49793;DHT22;35690;37.536;-122.304;2022-07-23T04:20:25;26.20;38.60
49793;DHT22;35690;37.536;-122.304;2022-07-23T04:22:51;26.20;38.70
49793;DHT22;35690;37.536;-122.304;2022-07-23T04:25:18;26.10;38.70
49793;DHT22;35690;37.536;-122.304;2022-07-23T04:27:44;26.00;38.90
49793;DHT22;35690;37.536;-122.304;2022-07-23T04:30:11;26.00;38.90
49793;DHT22;35690;37.536;-122.304;2022-07-23T04:32:37;26.00;39.00
49793;DHT22;35690;37.536;-122.304;2022-07-23T04:35:04;25.80;39.30
49793;DHT22;35690;37.536;-122.304;2022-07-23T04:37:32;25.80;39.10
49793;DHT22;35690;37.536;-122.304;2022-07-23T04:39:58;25.70;39.20
49793;DHT22;35690;37.536;-122.304;2022-07-23T04:42:25;25.60;39.50
49793;DHT22;35690;37.536;-122.304;2022-07-23T04:44:52;25.50;39.50
49793;DHT22;35690;37.536;-122.304;2022-07-23T04:47:18;25.50;39.60
49793;DHT22;35690;37.536;-122.304;2022-07-23T04:49:45;25.40;39.70
49793;DHT22;35690;37.536;-122.304;2022-07-23T04:52:11;25.40;39.70
49793;DHT22;35690;37.536;-122.304;2022-07-23T04:54:38;25.30;40.00
49793;DHT22;35690;37.536;-122.304;2022-07-23T04:57:04;25.20;39.90
49793;DHT22;35690;37.536;-122.304;2022-07-23T04:59:30;25.30;40.00
49793;DHT22;35690;37.536;-122.304;2022-07-23T05:01:57;25.20;40.10
49793;DHT22;35690;37.536;-122.304;2022-07-23T05:04:23;25.20;39.90
49793;DHT22;35690;37.536;-122.304;2022-07-23T05:06:50;25.00;40.10
49793;DHT22;35690;37.536;-122.304;2022-07-23T05:09:16;25.00;40.30
49793;DHT22;35690;37.536;-122.304;2022-07-23T05:11:43;25.00;40.20
49793;DHT22;35690;37.536;-122.304;2022-07-23T05:14:09;25.00;40.40
49793;DHT22;35690;37.536;-122.304;2022-07-23T05:16:38;24.90;40.40
49793;DHT22;35690;37.536;-122.304;2022-07-23T05:19:25;24.90;40.50
49793;DHT22;35690;37.536;-122.304;2022-07-23T05:21:51;24.70;40.70
49793;DHT22;35690;37.536;-122.304;2022-07-23T05:24:18;24.70;40.80
49793;DHT22;35690;37.536;-122.304;2022-07-23T05:26:44;24.70;40.80
49793;DHT22;35690;37.536;-122.304;2022-07-23T05:29:11;24.70;41.00
49793;DHT22;35690;37.536;-122.304;2022-07-23T05:31:37;24.60;40.90
49793;DHT22;35690;37.536;-122.304;2022-07-23T05:34:04;24.50;41.00
49793;DHT22;35690;37.536;-122.304;2022-07-23T05:36:32;24.50;41.20
49793;DHT22;35690;37.536;-122.304;2022-07-23T05:38:59;24.50;40.90
49793;DHT22;35690;37.536;-122.304;2022-07-23T05:41:25;24.40;41.30
49793;DHT22;35690;37.536;-122.304;2022-07-23T05:43:51;24.40;41.20
49793;DHT22;35690;37.536;-122.304;2022-07-23T05:46:18;24.40;41.30
49793;DHT22;35690;37.536;-122.304;2022-07-23T05:48:44;24.40;41.40
49793;DHT22;35690;37.536;-122.304;2022-07-23T05:51:24;24.30;41.40
49793;DHT22;35690;37.536;-122.304;2022-07-23T05:53:51;24.20;41.50
49793;DHT22;35690;37.536;-122.304;2022-07-23T05:56:18;24.20;41.60
49793;DHT22;35690;37.536;-122.304;2022-07-23T05:58:45;24.10;41.60
49793;DHT22;35690;37.536;-122.304;2022-07-23T06:01:12;24.00;42.00
49793;DHT22;35690;37.536;-122.304;2022-07-23T06:03:38;23.90;42.10
49793;DHT22;35690;37.536;-122.304;2022-07-23T06:06:06;24.00;41.90
49793;DHT22;35690;37.536;-122.304;2022-07-23T06:08:32;24.10;41.90
49793;DHT22;35690;37.536;-122.304;2022-07-23T06:10:59;23.90;42.10
49793;DHT22;35690;37.536;-122.304;2022-07-23T06:13:26;23.90;42.10
49793;DHT22;35690;37.536;-122.304;2022-07-23T06:15:52;23.90;42.20
49793;DHT22;35690;37.536;-122.304;2022-07-23T06:18:19;23.80;42.00
49793;DHT22;35690;37.536;-122.304;2022-07-23T06:20:45;23.70;42.30
49793;DHT22;35690;37.536;-122.304;2022-07-23T06:23:12;23.70;42.30
49793;DHT22;35690;37.536;-122.304;2022-07-23T06:25:38;23.80;42.30
49793;DHT22;35690;37.536;-122.304;2022-07-23T06:28:05;23.70;42.60
49793;DHT22;35690;37.536;-122.304;2022-07-23T06:30:32;23.70;42.40
49793;DHT22;35690;37.536;-122.304;2022-07-23T06:32:58;23.60;42.30
49793;DHT22;35690;37.536;-122.304;2022-07-23T06:35:24;23.70;42.50
49793;DHT22;35690;37.536;-122.304;2022-07-23T06:37:51;23.50;42.80
49793;DHT22;35690;37.536;-122.304;2022-07-23T06:40:17;23.50;42.50
49793;DHT22;35690;37.536;-122.304;2022-07-23T06:42:44;23.50;42.40
49793;DHT22;35690;37.536;-122.304;2022-07-23T06:45:10;23.50;42.70
49793;DHT22;35690;37.536;-122.304;2022-07-23T06:47:37;23.50;42.70
49793;DHT22;35690;37.536;-122.304;2022-07-23T06:50:07;23.40;43.00
49793;DHT22;35690;37.536;-122.304;2022-07-23T06:52:34;23.40;42.80
49793;DHT22;35690;37.536;-122.304;2022-07-23T06:55:00;23.40;42.80
49793;DHT22;35690;37.536;-122.304;2022-07-23T06:57:27;23.30;43.10
49793;DHT22;35690;37.536;-122.304;2022-07-23T06:59:53;23.40;42.80
49793;DHT22;35690;37.536;-122.304;2022-07-23T07:02:20;23.30;43.00
49793;DHT22;35690;37.536;-122.304;2022-07-23T07:04:46;23.40;42.80
49793;DHT22;35690;37.536;-122.304;2022-07-23T07:07:12;23.30;43.00
49793;DHT22;35690;37.536;-122.304;2022-07-23T07:09:39;23.30;43.10
49793;DHT22;35690;37.536;-122.304;2022-07-23T07:12:06;23.30;42.90
49793;DHT22;35690;37.536;-122.304;2022-07-23T07:14:32;23.20;43.20
49793;DHT22;35690;37.536;-122.304;2022-07-23T07:16:59;23.20;43.30
49793;DHT22;35690;37.536;-122.304;2022-07-23T07:19:25;23.20;43.00
49793;DHT22;35690;37.536;-122.304;2022-07-23T07:21:51;23.20;43.20
49793;DHT22;35690;37.536;-122.304;2022-07-23T07:24:18;23.20;43.20
49793;DHT22;35690;37.536;-122.304;2022-07-23T07:26:44;23.10;43.40
49793;DHT22;35690;37.536;-122.304;2022-07-23T07:29:11;23.20;43.30
49793;DHT22;35690;37.536;-122.304;2022-07-23T07:31:37;23.20;43.30
49793;DHT22;35690;37.536;-122.304;2022-07-23T07:34:04;23.30;43.20
49793;DHT22;35690;37.536;-122.304;2022-07-23T07:36:30;23.20;43.40
49793;DHT22;35690;37.536;-122.304;2022-07-23T07:38:57;23.20;43.40
49793;DHT22;35690;37.536;-122.304;2022-07-23T07:41:23;23.20;43.60
49793;DHT22;35690;37.536;-122.304;2022-07-23T07:43:52;23.20;43.40
49793;DHT22;35690;37.536;-122.304;2022-07-23T07:46:19;23.20;43.30
49793;DHT22;35690;37.536;-122.304;2022-07-23T07:48:46;23.20;43.40
49793;DHT22;35690;37.536;-122.304;2022-07-23T07:51:12;23.20;43.50
49793;DHT22;35690;37.536;-122.304;2022-07-23T07:53:38;23.10;43.30
49793;DHT22;35690;37.536;-122.304;2022-07-23T07:56:05;23.10;43.50
49793;DHT22;35690;37.536;-122.304;2022-07-23T07:58:32;23.10;43.80
49793;DHT22;35690;37.536;-122.304;2022-07-23T08:00:58;23.00;43.70
49793;DHT22;35690;37.536;-122.304;2022-07-23T08:03:26;23.00;43.70
49793;DHT22;35690;37.536;-122.304;2022-07-23T08:05:53;23.00;43.70
49793;DHT22;35690;37.536;-122.304;2022-07-23T08:08:19;23.10;43.80
49793;DHT22;35690;37.536;-122.304;2022-07-23T08:10:46;23.00;43.70
49793;DHT22;35690;37.536;-122.304;2022-07-23T08:13:16;23.00;43.70
49793;DHT22;35690;37.536;-122.304;2022-07-23T08:15:43;23.00;43.70
49793;DHT22;35690;37.536;-122.304;2022-07-23T08:18:10;22.90;44.00
49793;DHT22;35690;37.536;-122.304;2022-07-23T08:20:36;22.90;43.80
49793;DHT22;35690;37.536;-122.304;2022-07-23T08:23:05;22.90;44.00
49793;DHT22;35690;37.536;-122.304;2022-07-23T08:25:34;22.90;44.20
49793;DHT22;35690;37.536;-122.304;2022-07-23T08:28:02;22.80;44.20
49793;DHT22;35690;37.536;-122.304;2022-07-23T08:30:33;22.80;44.20
49793;DHT22;35690;37.536;-122.304;2022-07-23T08:33:04;22.70;44.20
49793;DHT22;35690;37.536;-122.304;2022-07-23T08:35:34;22.80;44.10
49793;DHT22;35690;37.536;-122.304;2022-07-23T08:38:07;22.70;44.30
49793;DHT22;35690;37.536;-122.304;2022-07-23T08:40:38;22.60;44.30
49793;DHT22;35690;37.536;-122.304;2022-07-23T08:43:09;22.60;44.40
49793;DHT22;35690;37.536;-122.304;2022-07-23T08:45:38;22.70;44.70
49793;DHT22;35690;37.536;-122.304;2022-07-23T08:48:13;22.50;44.90
49793;DHT22;35690;37.536;-122.304;2022-07-23T08:50:43;22.60;44.70
49793;DHT22;35690;37.536;-122.304;2022-07-23T08:53:10;22.60;44.70
49793;DHT22;35690;37.536;-122.304;2022-07-23T08:55:37;22.60;44.80
49793;DHT22;35690;37.536;-122.304;2022-07-23T08:58:03;22.50;44.90
49793;DHT22;35690;37.536;-122.304;2022-07-23T09:00:30;22.50;44.80
49793;DHT22;35690;37.536;-122.304;2022-07-23T09:02:57;22.50;44.80
49793;DHT22;35690;37.536;-122.304;2022-07-23T09:05:23;22.50;44.70
49793;DHT22;35690;37.536;-122.304;2022-07-23T09:08:12;22.40;45.00
49793;DHT22;35690;37.536;-122.304;2022-07-23T09:10:58;22.40;44.80
49793;DHT22;35690;37.536;-122.304;2022-07-23T09:13:42;22.40;45.00
49793;DHT22;35690;37.536;-122.304;2022-07-23T09:16:26;22.30;45.10
49793;DHT22;35690;37.536;-122.304;2022-07-23T09:19:02;22.30;45.10
49793;DHT22;35690;37.536;-122.304;2022-07-23T09:21:37;22.40;45.10
49793;DHT22;35690;37.536;-122.304;2022-07-23T09:24:09;22.30;45.10
49793;DHT22;35690;37.536;-122.304;2022-07-23T09:29:09;22.30;45.30
49793;DHT22;35690;37.536;-122.304;2022-07-23T09:32:03;22.10;45.40
49793;DHT22;35690;37.536;-122.304;2022-07-23T09:34:33;22.30;45.30
49793;DHT22;35690;37.536;-122.304;2022-07-23T09:37:19;22.30;45.30
49793;DHT22;35690;37.536;-122.304;2022-07-23T09:39:47;22.20;45.10
49793;DHT22;35690;37.536;-122.304;2022-07-23T09:42:24;22.10;45.30
49793;DHT22;35690;37.536;-122.304;2022-07-23T09:44:53;22.10;45.40
49793;DHT22;35690;37.536;-122.304;2022-07-23T09:47:21;22.10;45.70
49793;DHT22;35690;37.536;-122.304;2022-07-23T09:50:08;22.10;45.50
49793;DHT22;35690;37.536;-122.304;2022-07-23T09:52:43;22.10;45.40
49793;DHT22;35690;37.536;-122.304;2022-07-23T09:55:10;22.10;45.70
49793;DHT22;35690;37.536;-122.304;2022-07-23T09:57:36;22.00;45.70
49793;DHT22;35690;37.536;-122.304;2022-07-23T10:00:06;22.10;45.80
49793;DHT22;35690;37.536;-122.304;2022-07-23T10:02:35;22.00;45.70
49793;DHT22;35690;37.536;-122.304;2022-07-23T10:05:02;22.10;45.50
49793;DHT22;35690;37.536;-122.304;2022-07-23T10:07:33;22.00;45.70
49793;DHT22;35690;37.536;-122.304;2022-07-23T10:10:01;22.00;45.70
49793;DHT22;35690;37.536;-122.304;2022-07-23T10:12:27;22.00;45.80
49793;DHT22;35690;37.536;-122.304;2022-07-23T10:15:13;22.00;45.70
49793;DHT22;35690;37.536;-122.304;2022-07-23T10:17:39;22.00;45.80
49793;DHT22;35690;37.536;-122.304;2022-07-23T10:20:06;22.00;45.90
49793;DHT22;35690;37.536;-122.304;2022-07-23T10:23:18;22.00;46.00
49793;DHT22;35690;37.536;-122.304;2022-07-23T10:25:55;22.00;45.90
49793;DHT22;35690;37.536;-122.304;2022-07-23T10:33:56;21.90;46.10
49793;DHT22;35690;37.536;-122.304;2022-07-23T10:39:33;21.80;46.30
49793;DHT22;35690;37.536;-122.304;2022-07-23T10:42:11;21.80;46.40
49793;DHT22;35690;37.536;-122.304;2022-07-23T10:44:40;21.80;46.40
49793;DHT22;35690;37.536;-122.304;2022-07-23T10:47:09;21.70;46.30
49793;DHT22;35690;37.536;-122.304;2022-07-23T10:49:48;21.90;46.20
49793;DHT22;35690;37.536;-122.304;2022-07-23T10:54:43;21.80;46.40
49793;DHT22;35690;37.536;-122.304;2022-07-23T10:57:11;21.80;46.30
49793;DHT22;35690;37.536;-122.304;2022-07-23T11:02:43;21.70;46.40
49793;DHT22;35690;37.536;-122.304;2022-07-23T11:05:13;21.70;46.60
49793;DHT22;35690;37.536;-122.304;2022-07-23T11:10:39;21.60;46.30
49793;DHT22;35690;37.536;-122.304;2022-07-23T11:16:22;21.70;46.30
49793;DHT22;35690;37.536;-122.304;2022-07-23T11:18:57;21.70;46.30
49793;DHT22;35690;37.536;-122.304;2022-07-23T11:24:11;21.60;46.90
49793;DHT22;35690;37.536;-122.304;2022-07-23T11:31:57;21.60;46.60
49793;DHT22;35690;37.536;-122.304;2022-07-23T11:34:34;21.60;46.80
49793;DHT22;35690;37.536;-122.304;2022-07-23T11:37:02;21.50;46.80
49793;DHT22;35690;37.536;-122.304;2022-07-23T11:39:30;21.60;46.70
49793;DHT22;35690;37.536;-122.304;2022-07-23T11:41:57;21.50;46.60
49793;DHT22;35690;37.536;-122.304;2022-07-23T11:44:29;21.50;46.80
49793;DHT22;35690;37.536;-122.304;2022-07-23T11:47:00;21.40;47.00
49793;DHT22;35690;37.536;-122.304;2022-07-23T11:49:27;21.50;46.90
49793;DHT22;35690;37.536;-122.304;2022-07-23T11:52:07;21.50;47.00
49793;DHT22;35690;37.536;-122.304;2022-07-23T11:54:36;21.50;46.90
49793;DHT22;35690;37.536;-122.304;2022-07-23T11:57:03;21.50;46.80
49793;DHT22;35690;37.536;-122.304;2022-07-23T11:59:33;21.40;46.70
49793;DHT22;35690;37.536;-122.304;2022-07-23T12:02:01;21.40;47.10
49793;DHT22;35690;37.536;-122.304;2022-07-23T12:04:43;21.40;47.10
49793;DHT22;35690;37.536;-122.304;2022-07-23T12:07:32;21.40;47.20
49793;DHT22;35690;37.536;-122.304;2022-07-23T12:12:59;21.40;46.90
49793;DHT22;35690;37.536;-122.304;2022-07-23T12:15:32;21.40;47.10
49793;DHT22;35690;37.536;-122.304;2022-07-23T12:18:02;21.20;47.30
49793;DHT22;35690;37.536;-122.304;2022-07-23T12:20:42;21.30;47.00
49793;DHT22;35690;37.536;-122.304;2022-07-23T12:23:11;21.30;47.20
49793;DHT22;35690;37.536;-122.304;2022-07-23T12:25:40;21.20;47.20
49793;DHT22;35690;37.536;-122.304;2022-07-23T12:28:11;21.20;47.10
49793;DHT22;35690;37.536;-122.304;2022-07-23T12:30:49;21.30;47.00
49793;DHT22;35690;37.536;-122.304;2022-07-23T12:33:33;21.20;47.40
49793;DHT22;35690;37.536;-122.304;2022-07-23T12:36:02;21.20;47.30
49793;DHT22;35690;37.536;-122.304;2022-07-23T12:38:40;21.10;47.40
49793;DHT22;35690;37.536;-122.304;2022-07-23T12:41:07;21.10;47.40
49793;DHT22;35690;37.536;-122.304;2022-07-23T12:43:37;21.00;47.70
49793;DHT22;35690;37.536;-122.304;2022-07-23T12:46:06;21.20;47.40
49793;DHT22;35690;37.536;-122.304;2022-07-23T12:51:19;21.10;47.50
49793;DHT22;35690;37.536;-122.304;2022-07-23T12:53:47;21.10;47.50
49793;DHT22;35690;37.536;-122.304;2022-07-23T12:56:29;21.10;47.50
49793;DHT22;35690;37.536;-122.304;2022-07-23T12:59:05;21.00;47.80
49793;DHT22;35690;37.536;-122.304;2022-07-23T13:01:37;20.90;47.70
49793;DHT22;35690;37.536;-122.304;2022-07-23T13:04:09;21.00;47.70
49793;DHT22;35690;37.536;-122.304;2022-07-23T13:06:38;20.90;47.90
49793;DHT22;35690;37.536;-122.304;2022-07-23T13:09:07;20.90;47.90
49793;DHT22;35690;37.536;-122.304;2022-07-23T13:11:34;21.00;47.80
49793;DHT22;35690;37.536;-122.304;2022-07-23T13:14:01;21.00;47.90
49793;DHT22;35690;37.536;-122.304;2022-07-23T13:16:29;21.00;47.80
49793;DHT22;35690;37.536;-122.304;2022-07-23T13:18:56;21.00;47.80
49793;DHT22;35690;37.536;-122.304;2022-07-23T13:21:23;20.90;47.80
49793;DHT22;35690;37.536;-122.304;2022-07-23T13:23:49;20.90;47.80
49793;DHT22;35690;37.536;-122.304;2022-07-23T13:26:16;20.90;47.90
49793;DHT22;35690;37.536;-122.304;2022-07-23T13:28:43;21.00;47.70
49793;DHT22;35690;37.536;-122.304;2022-07-23T13:31:09;20.90;47.90
49793;DHT22;35690;37.536;-122.304;2022-07-23T13:33:36;20.80;48.00
49793;DHT22;35690;37.536;-122.304;2022-07-23T13:36:03;20.80;48.00
49793;DHT22;35690;37.536;-122.304;2022-07-23T13:38:30;20.80;48.10
49793;DHT22;35690;37.536;-122.304;2022-07-23T13:40:56;20.90;48.20
49793;DHT22;35690;37.536;-122.304;2022-07-23T13:43:24;20.90;48.10
49793;DHT22;35690;37.536;-122.304;2022-07-23T13:45:52;20.80;48.10
49793;DHT22;35690;37.536;-122.304;2022-07-23T13:48:20;20.90;47.90
49793;DHT22;35690;37.536;-122.304;2022-07-23T13:50:48;20.80;48.00
49793;DHT22;35690;37.536;-122.304;2022-07-23T13:53:17;20.70;48.30
49793;DHT22;35690;37.536;-122.304;2022-07-23T13:55:44;20.80;48.20
49793;DHT22;35690;37.536;-122.304;2022-07-23T13:58:11;20.90;48.20
49793;DHT22;35690;37.536;-122.304;2022-07-23T14:00:41;20.80;48.30
49793;DHT22;35690;37.536;-122.304;2022-07-23T14:03:08;20.70;48.40
49793;DHT22;35690;37.536;-122.304;2022-07-23T14:05:35;20.80;48.30
49793;DHT22;35690;37.536;-122.304;2022-07-23T14:08:02;20.90;48.00
49793;DHT22;35690;37.536;-122.304;2022-07-23T14:10:30;20.80;48.30
49793;DHT22;35690;37.536;-122.304;2022-07-23T14:12:57;20.70;48.40
49793;DHT22;35690;37.536;-122.304;2022-07-23T14:15:26;20.80;48.30
49793;DHT22;35690;37.536;-122.304;2022-07-23T14:17:54;20.90;48.30
49793;DHT22;35690;37.536;-122.304;2022-07-23T14:20:21;20.80;48.60
49793;DHT22;35690;37.536;-122.304;2022-07-23T14:22:48;20.80;48.50
49793;DHT22;35690;37.536;-122.304;2022-07-23T14:25:16;20.80;48.40
49793;DHT22;35690;37.536;-122.304;2022-07-23T14:27:43;20.80;48.30
49793;DHT22;35690;37.536;-122.304;2022-07-23T14:30:12;21.00;48.00
49793;DHT22;35690;37.536;-122.304;2022-07-23T14:32:38;21.00;48.10
49793;DHT22;35690;37.536;-122.304;2022-07-23T14:35:06;20.90;48.20
49793;DHT22;35690;37.536;-122.304;2022-07-23T14:37:32;21.00;48.00
49793;DHT22;35690;37.536;-122.304;2022-07-23T14:39:59;21.10;47.80
49793;DHT22;35690;37.536;-122.304;2022-07-23T14:42:26;21.00;48.00
49793;DHT22;35690;37.536;-122.304;2022-07-23T14:44:52;20.90;48.00
49793;DHT22;35690;37.536;-122.304;2022-07-23T14:47:19;21.10;48.00
49793;DHT22;35690;37.536;-122.304;2022-07-23T14:49:45;20.90;48.00
49793;DHT22;35690;37.536;-122.304;2022-07-23T14:52:12;21.10;48.00
49793;DHT22;35690;37.536;-122.304;2022-07-23T14:54:38;20.80;48.40
49793;DHT22;35690;37.536;-122.304;2022-07-23T14:57:05;20.90;48.20
49793;DHT22;35690;37.536;-122.304;2022-07-23T14:59:33;21.00;48.10
49793;DHT22;35690;37.536;-122.304;2022-07-23T15:02:00;20.90;48.30
49793;DHT22;35690;37.536;-122.304;2022-07-23T15:04:29;20.80;48.40
49793;DHT22;35690;37.536;-122.304;2022-07-23T15:06:56;20.80;48.60
49793;DHT22;35690;37.536;-122.304;2022-07-23T15:09:22;20.70;48.70
49793;DHT22;35690;37.536;-122.304;2022-07-23T15:11:49;20.70;48.80
49793;DHT22;35690;37.536;-122.304;2022-07-23T15:14:15;21.00;48.60
49793;DHT22;35690;37.536;-122.304;2022-07-23T15:16:42;21.00;48.60
49793;DHT22;35690;37.536;-122.304;2022-07-23T15:19:08;21.00;48.50
49793;DHT22;35690;37.536;-122.304;2022-07-23T15:21:35;20.80;48.70
49793;DHT22;35690;37.536;-122.304;2022-07-23T15:24:01;21.00;48.60
49793;DHT22;35690;37.536;-122.304;2022-07-23T15:26:29;21.10;48.80
49793;DHT22;35690;37.536;-122.304;2022-07-23T15:28:57;21.10;48.30
49793;DHT22;35690;37.536;-122.304;2022-07-23T15:31:24;21.00;48.50